Time;durP1;ratioP1;P1;durP2;ratioP2;P2;SDS_P1;SDS_P2;PMS_P1;PMS_P2;Temp;Humidity;BMP_temperature;BMP_pressure;BME280_temperature;BME280_humidity;BME280_pressure;Samples;Min_cycle;Max_cycle;Signal;HPM_P1;HPM_P2
2023/06/18 00:02:11;;;;;;;61.17;54.63;;;16.20;99.90;;;;;;5050164;28;20463;-62
2023/06/18 00:04:37;;;;;;;59.65;53.50;;;15.80;99.90;;;;;;5049645;28;20032;-63
2023/06/18 00:07:02;;;;;;;57.40;51.50;;;16.10;99.90;;;;;;5049969;28;20071;-62
2023/06/18 00:09:28;;;;;;;59.70;53.88;;;15.70;99.90;;;;;;5050279;28;20045;-62
2023/06/18 00:11:54;;;;;;;61.17;55.05;;;15.60;99.90;;;;;;5034557;28;20049;-62
2023/06/18 00:14:20;;;;;;;61.38;55.63;;;15.50;99.90;;;;;;5035360;28;20037;-62
2023/06/18 00:16:46;;;;;;;63.35;56.97;;;15.60;99.90;;;;;;5048534;28;20048;-62
2023/06/18 00:19:13;;;;;;;65.80;59.00;;;15.60;99.90;;;;;;5048293;28;20036;-62
2023/06/18 00:21:38;;;;;;;64.18;57.92;;;15.60;99.90;;;;;;5031741;28;20371;-62
2023/06/18 00:24:04;;;;;;;65.10;58.38;;;15.70;99.90;;;;;;5050064;28;20504;-62
2023/06/18 00:26:30;;;;;;;64.88;58.38;;;15.60;99.90;;;;;;5049619;28;20037;-62
2023/06/18 00:28:55;;;;;;;64.25;57.58;;;15.70;99.90;;;;;;5050179;28;20580;-63
2023/06/18 00:31:21;;;;;;;67.88;60.80;;;15.80;99.90;;;;;;5049814;28;20048;-62
2023/06/18 00:33:46;;;;;;;65.93;59.05;;;15.70;99.90;;;;;;5049836;28;20037;-62
2023/06/18 00:36:12;;;;;;;64.07;57.58;;;15.50;99.90;;;;;;5048659;28;20045;-62
2023/06/18 00:38:46;;;;;;;65.72;58.92;;;15.50;99.90;;;;;;5049683;28;20098;-63
2023/06/18 00:41:12;;;;;;;64.75;58.13;;;15.80;99.90;;;;;;5049058;28;20064;-62
2023/06/18 00:43:38;;;;;;;64.82;57.80;;;15.60;99.90;;;;;;5050426;28;20045;-62
2023/06/18 00:46:05;;;;;;;65.10;58.65;;;15.80;99.90;;;;;;5048584;28;20040;-62
2023/06/18 00:48:32;;;;;;;65.03;58.35;;;15.70;99.90;;;;;;5049773;28;20453;-62
2023/06/18 00:50:59;;;;;;;62.63;56.38;;;15.50;99.90;;;;;;5049381;28;20041;-62
2023/06/18 00:53:25;;;;;;;62.90;56.33;;;15.50;99.90;;;;;;5049435;28;20112;-62
2023/06/18 00:55:52;;;;;;;60.05;53.92;;;15.50;99.90;;;;;;5049642;28;20115;-62
2023/06/18 00:58:18;;;;;;;64.47;57.80;;;15.50;99.90;;;;;;5050170;28;20041;-63
2023/06/18 01:00:44;;;;;;;64.40;57.67;;;15.50;99.90;;;;;;5043345;28;20405;-62
2023/06/18 01:03:18;;;;;;;62.47;55.88;;;15.60;99.90;;;;;;5033916;28;20149;-62
2023/06/18 01:05:47;;;;;;;61.45;55.13;;;15.60;99.90;;;;;;5040550;28;20136;-62
2023/06/18 01:08:14;;;;;;;61.80;55.50;;;15.40;99.90;;;;;;5049595;28;20041;-63
2023/06/18 01:10:40;;;;;;;61.65;55.33;;;15.70;99.90;;;;;;5047239;28;20045;-62
2023/06/18 01:13:09;;;;;;;61.70;55.25;;;15.30;99.90;;;;;;5049681;28;20167;-62
2023/06/18 01:15:34;;;;;;;64.55;57.95;;;15.20;99.90;;;;;;5049238;28;20041;-62
2023/06/18 01:18:01;;;;;;;59.90;53.92;;;15.10;99.90;;;;;;5049673;28;20399;-62
2023/06/18 01:20:30;;;;;;;62.85;56.08;;;15.10;99.90;;;;;;5048796;28;20040;-62
2023/06/18 01:23:02;;;;;;;64.47;57.95;;;15.30;99.90;;;;;;5049223;28;20045;-62
2023/06/18 01:25:32;;;;;;;67.15;59.97;;;15.20;99.90;;;;;;5047792;28;20048;-62
2023/06/18 01:28:07;;;;;;;65.55;58.90;;;14.80;99.90;;;;;;5050017;28;20092;-62
2023/06/18 01:30:36;;;;;;;70.43;63.28;;;15.20;99.90;;;;;;5052831;28;20041;-62
2023/06/18 01:33:03;;;;;;;68.18;61.03;;;15.30;99.90;;;;;;5053136;28;20572;-62
2023/06/18 01:35:29;;;;;;;72.72;65.07;;;15.40;99.90;;;;;;5051406;28;20410;-62
2023/06/18 01:38:01;;;;;;;73.85;66.18;;;15.30;99.90;;;;;;5053229;28;20068;-62
2023/06/18 01:40:33;;;;;;;73.80;65.82;;;15.60;99.90;;;;;;5031846;28;20045;-62
2023/06/18 01:43:22;;;;;;;73.95;66.18;;;15.20;99.90;;;;;;5052713;28;20529;-62
2023/06/18 01:45:54;;;;;;;75.30;66.53;;;15.80;99.90;;;;;;5051350;28;20045;-62
2023/06/18 01:48:22;;;;;;;68.65;61.60;;;15.70;99.90;;;;;;5052982;28;20120;-62
2023/06/18 01:50:49;;;;;;;69.93;62.63;;;15.70;99.90;;;;;;5051013;28;20147;-62
2023/06/18 01:53:21;;;;;;;75.82;65.93;;;16.20;99.90;;;;;;5047281;28;20048;-62
2023/06/18 01:55:49;;;;;;;69.90;62.45;;;16.40;99.90;;;;;;5050356;28;20765;-62
2023/06/18 01:58:15;;;;;;;70.85;63.20;;;15.50;99.90;;;;;;5051921;28;20127;-62
2023/06/18 02:00:41;;;;;;;71.25;63.60;;;15.50;99.90;;;;;;5052117;28;20056;-62
2023/06/18 02:03:07;;;;;;;74.95;64.25;;;16.00;99.90;;;;;;5051251;28;20037;-62
2023/06/18 02:05:33;;;;;;;71.15;62.20;;;16.00;99.90;;;;;;5052181;28;20080;-62
2023/06/18 02:07:58;;;;;;;71.15;63.22;;;16.10;99.90;;;;;;5053051;28;20572;-62
2023/06/18 02:10:24;;;;;;;72.85;64.43;;;15.70;99.90;;;;;;5049257;28;20380;-62
2023/06/18 02:12:50;;;;;;;68.38;61.20;;;16.10;99.90;;;;;;5050052;28;20043;-62
2023/06/18 02:15:15;;;;;;;70.13;62.47;;;16.10;99.90;;;;;;5044226;28;20045;-62
2023/06/18 02:17:42;;;;;;;71.88;62.67;;;16.20;99.90;;;;;;5042872;28;20041;-62
2023/06/18 02:20:09;;;;;;;74.95;63.72;;;16.10;99.90;;;;;;5037064;28;20059;-62
2023/06/18 02:22:35;;;;;;;71.47;62.60;;;15.80;99.90;;;;;;5050920;28;20072;-62
2023/06/18 02:25:01;;;;;;;71.70;63.92;;;16.20;99.90;;;;;;5051634;28;20041;-62
2023/06/18 02:27:27;;;;;;;69.88;61.33;;;16.10;99.90;;;;;;5050780;28;20498;-62
2023/06/18 02:29:53;;;;;;;72.60;64.15;;;16.40;99.90;;;;;;5052019;28;20037;-62
2023/06/18 02:32:18;;;;;;;74.20;66.15;;;16.00;99.90;;;;;;5052395;28;20095;-62
2023/06/18 02:34:44;;;;;;;72.03;63.53;;;16.20;99.90;;;;;;5051731;28;20422;-63
2023/06/18 02:37:10;;;;;;;72.88;63.38;;;16.40;99.90;;;;;;5051811;28;20410;-62
2023/06/18 02:39:35;;;;;;;70.85;63.30;;;16.10;99.90;;;;;;5050100;28;20036;-62
2023/06/18 02:42:01;;;;;;;70.50;63.03;;;16.00;99.90;;;;;;5033419;28;20107;-62
2023/06/18 02:44:28;;;;;;;72.45;64.53;;;16.00;99.90;;;;;;5051781;28;20079;-62
2023/06/18 02:46:55;;;;;;;73.47;65.55;;;16.40;99.90;;;;;;5048104;28;20041;-62
2023/06/18 02:49:21;;;;;;;72.72;64.55;;;16.40;99.90;;;;;;5041253;28;20026;-62
2023/06/18 02:51:47;;;;;;;80.20;66.15;;;15.80;99.90;;;;;;5051161;28;20071;-62
2023/06/18 02:54:13;;;;;;;80.43;67.13;;;16.20;99.90;;;;;;5051575;28;20396;-62
2023/06/18 02:56:38;;;;;;;74.00;66.10;;;16.20;99.90;;;;;;5051312;28;20049;-62
2023/06/18 02:59:04;;;;;;;76.57;67.75;;;15.90;99.90;;;;;;5050147;28;20159;-63
2023/06/18 03:01:31;;;;;;;74.38;64.70;;;15.90;99.90;;;;;;5050396;28;20106;-62
2023/06/18 03:03:57;;;;;;;76.28;67.28;;;16.00;99.90;;;;;;5051114;28;20082;-63
2023/06/18 03:06:23;;;;;;;70.35;62.60;;;16.20;99.90;;;;;;5051029;28;20567;-62
2023/06/18 03:08:49;;;;;;;70.43;62.78;;;16.10;99.90;;;;;;5051234;28;20116;-62
2023/06/18 03:11:14;;;;;;;74.82;66.68;;;15.80;99.90;;;;;;5059887;28;20072;-62
2023/06/18 03:13:40;;;;;;;75.20;66.43;;;16.20;99.90;;;;;;5051298;28;20041;-62
2023/06/18 03:16:06;;;;;;;81.93;68.22;;;15.80;99.90;;;;;;5051092;28;20048;-63
2023/06/18 03:18:32;;;;;;;74.63;65.95;;;16.30;99.90;;;;;;5051359;28;20045;-62
2023/06/18 03:20:58;;;;;;;73.93;66.00;;;15.80;99.90;;;;;;5050359;28;20044;-62
2023/06/18 03:23:24;;;;;;;76.28;68.00;;;16.30;99.90;;;;;;5051251;28;20562;-62
2023/06/18 03:25:50;;;;;;;75.53;66.43;;;15.90;99.90;;;;;;5049236;28;20514;-62
2023/06/18 03:28:16;;;;;;;74.53;66.47;;;16.00;99.90;;;;;;5050793;28;20162;-62
2023/06/18 03:30:41;;;;;;;74.80;66.13;;;15.90;99.90;;;;;;5050882;28;20120;-62
2023/06/18 03:33:08;;;;;;;74.30;66.47;;;16.10;99.90;;;;;;5051174;28;20067;-63
2023/06/18 03:35:36;;;;;;;75.55;67.22;;;15.90;99.90;;;;;;5050197;28;20123;-62
2023/06/18 03:38:02;;;;;;;77.10;68.63;;;16.10;99.90;;;;;;5051044;28;20037;-62
2023/06/18 03:40:28;;;;;;;75.43;67.55;;;15.70;99.90;;;;;;5050357;28;20127;-62
2023/06/18 03:42:53;;;;;;;73.68;65.95;;;15.70;99.90;;;;;;5050948;28;20206;-62
2023/06/18 03:45:20;;;;;;;72.30;64.68;;;16.20;99.90;;;;;;5050889;28;20122;-62
2023/06/18 03:47:46;;;;;;;75.18;67.07;;;15.90;99.90;;;;;;5050841;28;20037;-62
2023/06/18 03:50:12;;;;;;;74.22;66.32;;;15.90;99.90;;;;;;5049768;28;20028;-63
2023/06/18 03:52:37;;;;;;;74.43;66.15;;;15.80;99.90;;;;;;5050489;28;20529;-62
2023/06/18 03:55:04;;;;;;;74.10;66.07;;;15.90;99.90;;;;;;5050422;28;20080;-62
2023/06/18 03:57:30;;;;;;;72.80;65.10;;;16.20;99.90;;;;;;5049082;28;20503;-62
2023/06/18 03:59:56;;;;;;;73.10;65.50;;;15.90;99.90;;;;;;5050393;28;20044;-63
2023/06/18 04:02:21;;;;;;;72.63;64.47;;;16.40;99.90;;;;;;5050160;28;20033;-62
2023/06/18 04:04:47;;;;;;;72.75;64.93;;;16.20;99.90;;;;;;5050016;28;20041;-62
2023/06/18 04:07:13;;;;;;;73.68;65.82;;;16.60;99.90;;;;;;5050315;28;20115;-62
2023/06/18 04:09:39;;;;;;;71.40;63.75;;;16.00;99.90;;;;;;5050417;28;20037;-62
2023/06/18 04:12:06;;;;;;;83.35;74.72;;;16.30;99.90;;;;;;5049808;28;20419;-62
2023/06/18 04:14:34;;;;;;;85.03;76.00;;;16.10;99.90;;;;;;5050541;28;20388;-62
2023/06/18 04:17:00;;;;;;;69.18;61.88;;;16.10;99.90;;;;;;5049972;28;20091;-62
2023/06/18 04:19:26;;;;;;;71.05;62.33;;;16.50;99.90;;;;;;5050089;28;20041;-62
2023/06/18 04:21:52;;;;;;;66.32;59.20;;;16.30;99.90;;;;;;5049943;28;20453;-62
2023/06/18 04:24:17;;;;;;;65.13;58.05;;;16.90;99.90;;;;;;5050065;28;20117;-62
2023/06/18 04:26:43;;;;;;;66.00;58.97;;;16.90;99.90;;;;;;5049837;28;20083;-62
2023/06/18 04:29:08;;;;;;;67.18;59.95;;;16.50;99.90;;;;;;5049889;28;20119;-62
2023/06/18 04:31:35;;;;;;;64.32;57.42;;;17.00;99.90;;;;;;5049874;28;20047;-62
2023/06/18 04:34:01;;;;;;;62.58;55.72;;;16.80;99.90;;;;;;5049969;28;20072;-62
2023/06/18 04:36:26;;;;;;;62.90;56.05;;;16.80;99.90;;;;;;5049824;28;20087;-62
2023/06/18 04:38:52;;;;;;;64.05;57.15;;;16.50;99.90;;;;;;5050165;28;20076;-62
2023/06/18 04:41:18;;;;;;;63.20;56.45;;;16.90;99.90;;;;;;5049244;28;20696;-62
2023/06/18 04:43:43;;;;;;;65.90;58.92;;;16.70;99.90;;;;;;5049456;28;20522;-62
2023/06/18 04:46:09;;;;;;;64.25;57.60;;;16.70;99.90;;;;;;5049581;28;20036;-62
2023/06/18 04:48:35;;;;;;;64.93;58.35;;;17.00;99.90;;;;;;5049786;28;20044;-62
2023/06/18 04:51:01;;;;;;;65.00;58.20;;;16.80;99.90;;;;;;5045694;28;20068;-62
2023/06/18 04:53:26;;;;;;;79.00;70.75;;;16.80;99.90;;;;;;5029869;28;20072;-62
2023/06/18 04:55:52;;;;;;;69.50;61.30;;;16.90;99.90;;;;;;5031868;28;20037;-62
2023/06/18 04:58:20;;;;;;;66.03;59.22;;;17.20;99.90;;;;;;5048187;28;20136;-62
2023/06/18 05:00:46;;;;;;;69.90;61.17;;;17.30;99.90;;;;;;5049550;28;20497;-62
2023/06/18 05:03:12;;;;;;;65.30;58.55;;;16.80;99.90;;;;;;5050720;28;20045;-62
2023/06/18 05:05:37;;;;;;;68.07;61.10;;;17.00;99.90;;;;;;5053795;28;20460;-62
2023/06/18 05:08:03;;;;;;;66.35;59.63;;;17.20;99.90;;;;;;5053583;28;20479;-62
2023/06/18 05:10:29;;;;;;;66.20;59.30;;;16.80;99.90;;;;;;5053744;28;20072;-62
2023/06/18 05:12:55;;;;;;;66.78;59.97;;;16.90;99.90;;;;;;5053241;28;20510;-62
2023/06/18 05:15:20;;;;;;;65.47;58.92;;;17.00;99.90;;;;;;5053702;28;20048;-62
2023/06/18 05:17:46;;;;;;;61.58;55.00;;;17.40;99.90;;;;;;5051741;28;20530;-62
2023/06/18 05:20:12;;;;;;;68.63;61.35;;;17.40;99.90;;;;;;5053876;28;20059;-62
2023/06/18 05:22:39;;;;;;;66.43;59.63;;;17.50;99.90;;;;;;5053199;28;20126;-62
2023/06/18 05:25:06;;;;;;;63.33;56.72;;;17.50;99.90;;;;;;5052542;28;20240;-62
2023/06/18 05:27:31;;;;;;;62.17;55.55;;;17.10;99.90;;;;;;5052839;28;20083;-62
2023/06/18 05:29:59;;;;;;;62.90;56.40;;;17.60;99.90;;;;;;5053297;28;20503;-62
2023/06/18 05:32:24;;;;;;;61.28;55.05;;;17.20;99.90;;;;;;5050985;28;20114;-62
2023/06/18 05:34:50;;;;;;;62.78;56.10;;;17.60;99.90;;;;;;5051992;28;20036;-62
2023/06/18 05:37:15;;;;;;;62.15;55.97;;;17.50;99.90;;;;;;5052023;28;20075;-62
2023/06/18 05:39:41;;;;;;;62.97;56.63;;;17.10;99.90;;;;;;5052619;28;20466;-60
2023/06/18 05:42:07;;;;;;;63.00;56.45;;;17.40;99.90;;;;;;5051030;28;20064;-60
2023/06/18 05:44:33;;;;;;;62.92;56.63;;;17.10;99.90;;;;;;5052406;28;20099;-60
2023/06/18 05:46:58;;;;;;;61.72;55.60;;;17.10;99.90;;;;;;5051879;28;20041;-61
2023/06/18 05:49:26;;;;;;;61.42;55.38;;;17.60;99.90;;;;;;5051940;28;20083;-61
2023/06/18 05:51:51;;;;;;;64.07;57.38;;;17.20;99.90;;;;;;5048924;28;20045;-61
2023/06/18 05:54:17;;;;;;;65.82;59.00;;;17.40;99.90;;;;;;5044176;28;20076;-61
2023/06/18 05:56:43;;;;;;;63.72;57.17;;;17.30;99.90;;;;;;5032062;28;20079;-60
2023/06/18 05:59:12;;;;;;;60.25;54.25;;;17.20;99.90;;;;;;5048957;28;20056;-61
2023/06/18 06:01:37;;;;;;;59.88;53.78;;;17.20;99.90;;;;;;5048365;28;20039;-60
2023/06/18 06:04:04;;;;;;;61.40;55.50;;;17.40;99.90;;;;;;5052874;28;20781;-61
2023/06/18 06:06:29;;;;;;;63.10;55.10;;;17.40;99.90;;;;;;5049464;28;20064;-60
2023/06/18 06:08:55;;;;;;;60.65;54.40;;;17.70;99.90;;;;;;5048966;28;20064;-60
2023/06/18 06:11:21;;;;;;;61.53;55.25;;;17.80;99.90;;;;;;5049768;28;20043;-61
2023/06/18 06:13:46;;;;;;;60.65;54.75;;;17.60;99.90;;;;;;5050534;28;20052;-61
2023/06/18 06:16:12;;;;;;;60.35;54.25;;;17.60;99.90;;;;;;5049117;28;20045;-61
2023/06/18 06:18:38;;;;;;;60.58;54.50;;;18.30;99.90;;;;;;5050294;28;20048;-61
2023/06/18 06:21:03;;;;;;;60.13;54.13;;;18.10;99.90;;;;;;5052156;28;20537;-61
2023/06/18 06:23:30;;;;;;;58.28;52.45;;;18.50;99.90;;;;;;5050101;28;20422;-61
2023/06/18 06:25:56;;;;;;;59.30;52.97;;;18.20;99.90;;;;;;5051678;28;20079;-61
2023/06/18 06:28:22;;;;;;;56.17;50.67;;;18.20;99.90;;;;;;5050539;28;20068;-61
2023/06/18 06:30:48;;;;;;;57.60;52.00;;;18.50;99.90;;;;;;5036543;28;20033;-60
2023/06/18 06:33:13;;;;;;;58.30;52.47;;;18.40;99.90;;;;;;5049593;28;20067;-61
2023/06/18 06:35:39;;;;;;;58.47;52.67;;;18.90;99.90;;;;;;5051852;28;20574;-61
2023/06/18 06:38:04;;;;;;;56.72;50.80;;;18.70;99.90;;;;;;5050561;28;20499;-60
2023/06/18 06:40:30;;;;;;;56.92;51.20;;;18.80;99.90;;;;;;5042035;28;20048;-61
2023/06/18 06:42:56;;;;;;;56.92;51.15;;;18.90;99.90;;;;;;5053374;28;20056;-60
2023/06/18 06:45:22;;;;;;;56.55;50.95;;;18.60;99.90;;;;;;5052522;28;20045;-60
2023/06/18 06:47:48;;;;;;;58.50;52.50;;;18.90;99.90;;;;;;5051218;28;20123;-61
2023/06/18 06:50:14;;;;;;;59.00;53.10;;;19.00;99.90;;;;;;5040109;28;20067;-60
2023/06/18 06:52:40;;;;;;;58.03;52.40;;;18.70;99.90;;;;;;5050989;28;20069;-60
2023/06/18 06:55:05;;;;;;;58.25;52.67;;;18.90;99.90;;;;;;5054421;28;20056;-60
2023/06/18 06:57:31;;;;;;;58.20;52.53;;;19.20;99.90;;;;;;5051693;28;20479;-61
2023/06/18 06:59:57;;;;;;;58.88;53.28;;;19.20;99.90;;;;;;5051627;28;20124;-61
2023/06/18 07:02:22;;;;;;;55.63;50.33;;;19.40;99.90;;;;;;5051170;28;20052;-60
2023/06/18 07:04:48;;;;;;;55.65;50.05;;;19.60;99.90;;;;;;5051489;28;20032;-60
2023/06/18 07:07:14;;;;;;;56.53;51.17;;;19.80;99.90;;;;;;5051339;28;20044;-61
2023/06/18 07:09:40;;;;;;;56.65;51.25;;;19.70;99.90;;;;;;5057643;28;20511;-61
2023/06/18 07:12:06;;;;;;;55.65;50.30;;;19.90;99.90;;;;;;5050926;28;20041;-61
2023/06/18 07:14:32;;;;;;;54.97;49.42;;;19.90;99.90;;;;;;5051038;28;20041;-60
2023/06/18 07:16:58;;;;;;;53.63;48.55;;;20.10;99.90;;;;;;5051210;28;20131;-61
2023/06/18 07:19:24;;;;;;;52.13;47.13;;;20.30;42.40;;;;;;5051466;28;20102;-61
2023/06/18 07:21:53;;;;;;;53.28;48.20;;;20.60;99.90;;;;;;5049410;28;20037;-60
2023/06/18 07:24:19;;;;;;;53.03;47.92;;;20.60;1.50;;;;;;5050679;28;20129;-60
2023/06/18 07:26:45;;;;;;;52.00;46.92;;;20.60;99.90;;;;;;5050170;28;20115;-61
2023/06/18 07:29:11;;;;;;;53.22;48.25;;;20.60;99.90;;;;;;5050678;28;20076;-61
2023/06/18 07:31:37;;;;;;;56.75;51.22;;;20.50;99.90;;;;;;5049457;28;20123;-60
2023/06/18 07:34:02;;;;;;;56.25;50.78;;;20.50;20.10;;;;;;5049801;28;20040;-60
2023/06/18 07:36:28;;;;;;;55.47;50.17;;;20.50;99.90;;;;;;5021376;28;20045;-61
2023/06/18 07:38:54;;;;;;;56.47;50.88;;;20.50;20.00;;;;;;5050640;28;20056;-60
2023/06/18 07:41:20;;;;;;;56.60;51.03;;;20.50;1.00;;;;;;5050319;28;20056;-60
2023/06/18 07:43:46;;;;;;;57.25;51.72;;;20.60;99.90;;;;;;5056491;28;20124;-62
2023/06/18 07:46:12;;;;;;;56.15;50.78;;;20.50;99.90;;;;;;5029981;28;20474;-62
2023/06/18 07:48:38;;;;;;;53.38;48.13;;;20.70;35.00;;;;;;5049775;28;20041;-62
2023/06/18 07:51:04;;;;;;;52.78;47.75;;;20.80;58.70;;;;;;5048086;28;20037;-62
2023/06/18 07:53:32;;;;;;;53.55;48.35;;;20.90;1.00;;;;;;5047430;28;20153;-62
2023/06/18 07:55:58;;;;;;;51.35;46.05;;;21.10;99.90;;;;;;5044335;28;20049;-61
2023/06/18 07:58:23;;;;;;;52.30;47.22;;;21.30;99.90;;;;;;5049139;28;20491;-62
2023/06/18 08:00:49;;;;;;;49.15;44.50;;;21.30;1.00;;;;;;5054936;28;20028;-62
2023/06/18 08:03:14;;;;;;;47.97;42.95;;;21.70;99.90;;;;;;5049425;28;20045;-62
2023/06/18 08:05:40;;;;;;;51.10;46.08;;;21.60;99.90;;;;;;5049476;28;20127;-62
2023/06/18 08:08:05;;;;;;;47.63;43.00;;;21.60;1.00;;;;;;5043408;28;20411;-62
2023/06/18 08:10:31;;;;;;;46.28;41.75;;;21.80;1.00;;;;;;5049800;28;20041;-62
2023/06/18 08:12:57;;;;;;;44.97;40.50;;;22.00;99.90;;;;;;5047684;28;20041;-62
2023/06/18 08:15:22;;;;;;;47.33;42.60;;;22.10;99.90;;;;;;5050602;28;20097;-62
2023/06/18 08:17:48;;;;;;;44.30;39.75;;;22.40;86.60;;;;;;5048370;28;20041;-62
2023/06/18 08:20:13;;;;;;;44.83;40.13;;;22.80;1.00;;;;;;5035982;28;20037;-62
2023/06/18 08:22:39;;;;;;;43.90;39.50;;;23.00;99.90;;;;;;5049441;28;20097;-62
2023/06/18 08:25:06;;;;;;;42.72;38.63;;;23.10;99.90;;;;;;5044760;28;20040;-62
2023/06/18 08:27:32;;;;;;;42.38;38.33;;;23.30;99.90;;;;;;5049719;28;20520;-62
2023/06/18 08:29:58;;;;;;;44.75;40.40;;;23.10;1.00;;;;;;5049035;28;20156;-62
2023/06/18 08:32:23;;;;;;;46.58;42.03;;;23.00;1.00;;;;;;5049092;28;20483;-62
2023/06/18 08:34:49;;;;;;;45.90;41.28;;;23.00;99.90;;;;;;5049992;28;20503;-62
2023/06/18 08:37:15;;;;;;;42.42;38.22;;;23.00;99.90;;;;;;5049300;28;20128;-62
2023/06/18 08:39:40;;;;;;;39.78;35.75;;;23.10;99.90;;;;;;5046567;28;20098;-65
2023/06/18 08:42:06;;;;;;;37.67;34.30;;;23.20;99.90;;;;;;5048725;28;20107;-64
2023/06/18 08:44:36;;;;;;;39.67;35.88;;;23.50;99.90;;;;;;5029778;28;20462;-64
2023/06/18 08:47:03;;;;;;;36.60;32.85;;;23.60;99.90;;;;;;5038956;28;20041;-63
2023/06/18 08:49:33;;;;;;;38.20;34.55;;;23.60;99.90;;;;;;5038780;28;20047;-65
2023/06/18 08:52:02;;;;;;;38.42;34.65;;;23.70;61.50;;;;;;5042559;28;20148;-64
2023/06/18 08:54:36;;;;;;;35.72;32.42;;;23.90;39.00;;;;;;5042961;28;20447;-64
2023/06/18 08:57:13;;;;;;;32.53;29.15;;;23.80;1.00;;;;;;5049292;28;20052;-64
2023/06/18 08:59:42;;;;;;;30.90;28.08;;;23.90;1.00;;;;;;5034859;28;20099;-65
2023/06/18 09:02:10;;;;;;;29.45;26.52;;;24.10;1.00;;;;;;5048874;28;20159;-65
2023/06/18 09:04:37;;;;;;;31.63;28.42;;;24.20;1.00;;;;;;5042476;28;20075;-65
2023/06/18 09:07:03;;;;;;;26.30;23.77;;;24.20;1.00;;;;;;5048555;28;20567;-65
2023/06/18 09:09:29;;;;;;;28.10;25.33;;;24.30;99.90;;;;;;5034091;28;20124;-64
2023/06/18 09:11:56;;;;;;;28.27;25.67;;;24.40;99.90;;;;;;5040369;28;20048;-65
2023/06/18 09:14:23;;;;;;;23.15;19.80;;;24.50;99.90;;;;;;5050260;28;20086;-64
2023/06/18 09:16:49;;;;;;;35.45;31.85;;;24.70;99.90;;;;;;5039264;28;20389;-64
2023/06/18 09:19:16;;;;;;;29.67;26.90;;;24.70;99.90;;;;;;5046429;28;20067;-64
2023/06/18 09:21:43;;;;;;;20.40;18.50;;;24.90;99.90;;;;;;5048961;28;20087;-64
2023/06/18 09:24:17;;;;;;;34.72;31.52;;;25.00;99.90;;;;;;5048449;28;20048;-64
2023/06/18 09:26:42;;;;;;;25.25;22.95;;;25.10;99.90;;;;;;5034011;28;20041;-64
2023/06/18 09:29:10;;;;;;;18.45;16.65;;;25.20;99.90;;;;;;5047416;28;20029;-70
2023/06/18 09:31:37;;;;;;;31.75;29.05;;;25.20;96.30;;;;;;5043605;28;20048;-63
2023/06/18 09:34:18;;;;;;;18.13;16.25;;;25.20;99.90;;;;;;5045874;28;20063;-63
2023/06/18 09:36:47;;;;;;;25.38;21.77;;;25.00;74.00;;;;;;5042401;28;20047;-62
2023/06/18 09:39:19;;;;;;;20.15;17.75;;;24.90;76.00;;;;;;5047830;28;20060;-63
2023/06/18 09:41:49;;;;;;;19.52;17.58;;;24.90;75.40;;;;;;5048091;28;20078;-63
2023/06/18 09:44:16;;;;;;;25.02;22.75;;;24.90;72.00;;;;;;5047580;28;20048;-63
2023/06/18 09:46:46;;;;;;;22.40;18.70;;;24.90;75.80;;;;;;5038536;28;20160;-63
2023/06/18 09:49:20;;;;;;;37.72;34.40;;;24.90;76.80;;;;;;5050196;28;20033;-63
2023/06/18 09:51:48;;;;;;;39.50;36.05;;;25.10;86.10;;;;;;5051897;28;20097;-63
2023/06/18 09:54:14;;;;;;;34.83;31.77;;;25.00;90.40;;;;;;5052399;28;20048;-63
2023/06/18 09:56:57;;;;;;;52.95;48.67;;;25.00;94.40;;;;;;5052312;28;20045;-63
2023/06/18 09:59:24;;;;;;;26.30;23.90;;;25.10;99.30;;;;;;5052686;28;20045;-63
2023/06/18 10:01:49;;;;;;;17.40;13.73;;;25.20;92.30;;;;;;5052123;28;20075;-63
2023/06/18 10:04:16;;;;;;;16.85;15.05;;;25.30;88.60;;;;;;5052476;28;20483;-63
2023/06/18 10:06:51;;;;;;;14.32;12.43;;;25.50;78.10;;;;;;5051944;28;20091;-63
2023/06/18 10:09:19;;;;;;;13.43;11.30;;;25.60;57.30;;;;;;5051438;28;20073;-63
2023/06/18 10:11:47;;;;;;;15.60;13.15;;;25.50;25.60;;;;;;5052225;28;20052;-63
2023/06/18 10:14:13;;;;;;;21.25;15.90;;;25.60;18.50;;;;;;5048707;28;20080;-64
2023/06/18 10:16:47;;;;;;;16.00;13.20;;;25.90;24.50;;;;;;5049156;28;20110;-63
2023/06/18 10:19:33;;;;;;;15.27;12.20;;;26.00;15.20;;;;;;5059694;28;20506;-63
2023/06/18 10:22:00;;;;;;;;;;;26.00;1.00;;;;;;5046351;28;20582;-63
2023/06/18 10:24:34;;;;;;;15.00;12.48;;;26.00;1.00;;;;;;5051262;28;19921;-63
2023/06/18 10:27:00;;;;;;;16.20;13.35;;;26.20;1.00;;;;;;5048328;28;20037;-63
2023/06/18 10:29:26;;;;;;;15.45;12.35;;;26.50;1.00;;;;;;5043469;28;20044;-63
2023/06/18 10:31:53;;;;;;;15.82;13.57;;;26.40;1.00;;;;;;5041064;28;20041;-63
2023/06/18 10:34:19;;;;;;;14.52;12.10;;;26.40;1.00;;;;;;5048005;28;20069;-63
2023/06/18 10:36:45;;;;;;;15.75;13.02;;;26.50;1.00;;;;;;5042595;28;20037;-63
2023/06/18 10:39:12;;;;;;;14.57;11.70;;;26.60;1.00;;;;;;5047235;28;20060;-63
2023/06/18 10:41:39;;;;;;;15.40;12.85;;;26.70;1.00;;;;;;5049954;28;20048;-63
2023/06/18 10:44:04;;;;;;;17.88;12.35;;;26.70;1.00;;;;;;5048577;28;20506;-63
2023/06/18 10:46:33;;;;;;;14.80;12.27;;;26.70;1.00;;;;;;5056002;28;20052;-63
2023/06/18 10:49:16;;;;;;;18.27;13.55;;;26.70;1.00;;;;;;5045518;28;20113;-63
2023/06/18 10:52:06;;;;;;;15.02;12.38;;;26.60;1.00;;;;;;5051193;28;20044;-63
2023/06/18 10:54:33;;;;;;;13.15;11.77;;;26.70;1.00;;;;;;5046535;28;20059;-63
2023/06/18 10:57:01;;;;;;;13.55;10.45;;;26.80;1.00;;;;;;5049477;28;20090;-63
2023/06/18 10:59:34;;;;;;;13.68;10.38;;;26.80;1.00;;;;;;5050953;28;20052;-63
2023/06/18 11:02:00;;;;;;;12.60;9.43;;;26.90;1.00;;;;;;5050956;28;20045;-63
2023/06/18 11:04:32;;;;;;;15.80;10.02;;;26.90;1.00;;;;;;5049301;28;20060;-63
2023/06/18 11:07:14;;;;;;;12.93;10.55;;;27.00;1.00;;;;;;5050117;28;20573;-63
2023/06/18 11:10:05;;;;;;;14.57;10.65;;;27.10;1.00;;;;;;5049891;28;20047;-63
2023/06/18 11:12:35;;;;;;;12.27;9.80;;;27.10;1.00;;;;;;5050696;28;20041;-64
2023/06/18 11:15:18;;;;;;;14.60;10.52;;;27.10;1.00;;;;;;5039500;28;20503;-63
2023/06/18 11:17:49;;;;;;;12.40;10.18;;;27.10;1.00;;;;;;5048643;28;20044;-64
2023/06/18 11:20:18;;;;;;;13.98;10.02;;;27.00;1.00;;;;;;5050699;28;20372;-63
2023/06/18 11:22:44;;;;;;;13.40;10.10;;;27.00;1.00;;;;;;5037250;28;20119;-63
2023/06/18 11:25:11;;;;;;;12.45;9.82;;;27.00;1.00;;;;;;5047533;28;20033;-63
2023/06/18 11:27:42;;;;;;;11.27;10.05;;;27.00;1.00;;;;;;5048399;28;20465;-63
2023/06/18 11:30:09;;;;;;;12.75;10.20;;;27.10;1.00;;;;;;5049154;28;20047;-63
2023/06/18 11:32:35;;;;;;;11.98;9.95;;;27.10;1.00;;;;;;5045701;28;20056;-63
2023/06/18 11:35:01;;;;;;;14.45;9.25;;;27.10;1.00;;;;;;5049819;28;20079;-63
2023/06/18 11:37:29;;;;;;;12.75;10.68;;;27.20;1.00;;;;;;5049299;28;20072;-63
2023/06/18 11:39:59;;;;;;;14.75;10.10;;;27.40;1.00;;;;;;5064563;28;20044;-63
2023/06/18 11:42:27;;;;;;;10.63;9.05;;;27.60;1.00;;;;;;5047550;28;20091;-63
2023/06/18 11:44:57;;;;;;;12.43;9.35;;;27.70;1.00;;;;;;5049362;28;20033;-64
2023/06/18 11:47:23;;;;;;;13.30;8.98;;;27.50;1.00;;;;;;5047533;28;20083;-64
2023/06/18 11:49:51;;;;;;;11.73;9.52;;;27.50;1.00;;;;;;5047259;28;20072;-65
2023/06/18 11:52:19;;;;;;;11.57;9.02;;;27.40;1.00;;;;;;5049259;28;20049;-65
2023/06/18 11:54:45;;;;;;;13.18;9.55;;;27.50;1.00;;;;;;5048348;28;20547;-61
2023/06/18 11:57:13;;;;;;;9.50;8.40;;;27.70;1.00;;;;;;5047503;28;20044;-62
2023/06/18 11:59:39;;;;;;;10.05;8.18;;;27.80;1.00;;;;;;5049566;28;20040;-61
2023/06/18 12:02:13;;;;;;;10.45;8.48;;;27.70;1.00;;;;;;5048680;28;20120;-61
2023/06/18 12:04:40;;;;;;;10.60;7.90;;;27.80;1.00;;;;;;5046353;28;20060;-61
2023/06/18 12:07:06;;;;;;;12.10;8.65;;;27.90;99.90;;;;;;5056052;28;20033;-61
2023/06/18 12:09:35;;;;;;;9.48;8.27;;;27.80;99.90;;;;;;5045859;28;20065;-62
2023/06/18 12:12:11;;;;;;;14.43;9.48;;;27.80;99.90;;;;;;5043502;28;20044;-61
2023/06/18 12:14:55;;;;;;;12.13;8.60;;;27.80;99.90;;;;;;5046369;28;20513;-61
2023/06/18 12:17:49;;;;;;;8.65;6.80;;;27.80;99.90;;;;;;5046459;28;20036;-62
2023/06/18 12:20:17;;;;;;;10.13;6.70;;;28.00;99.90;;;;;;5045550;28;20044;-62
2023/06/18 12:22:43;;;;;;;9.68;7.30;;;28.10;99.90;;;;;;5046767;28;20612;-64
2023/06/18 12:25:11;;;;;;;10.40;7.57;;;28.20;99.90;;;;;;5043184;28;20447;-62
2023/06/18 12:27:37;;;;;;;11.35;6.95;;;28.40;99.90;;;;;;5061642;28;20044;-63
2023/06/18 12:30:05;;;;;;;9.15;7.15;;;28.50;99.90;;;;;;5048141;28;20033;-62
2023/06/18 12:32:33;;;;;;;14.50;6.40;;;28.60;99.90;;;;;;5048045;28;20032;-63